sensor_id;sensor_type;location;lat;lon;timestamp;temperature;humidity
2389;DHT22;1205;47.984;7.668;2023-05-14T00:00:18;12.90;99.90
2389;DHT22;1205;47.984;7.668;2023-05-14T00:02:43;12.80;99.90
2389;DHT22;1205;47.984;7.668;2023-05-14T00:05:09;12.80;99.90
2389;DHT22;1205;47.984;7.668;2023-05-14T00:07:35;12.70;99.90
2389;DHT22;1205;47.984;7.668;2023-05-14T00:10:01;12.80;99.90
2389;DHT22;1205;47.984;7.668;2023-05-14T00:12:26;12.70;99.90
2389;DHT22;1205;47.984;7.668;2023-05-14T00:14:52;12.60;99.90
2389;DHT22;1205;47.984;7.668;2023-05-14T00:17:18;12.70;99.90
2389;DHT22;1205;47.984;7.668;2023-05-14T00:19:44;12.70;99.90
2389;DHT22;1205;47.984;7.668;2023-05-14T00:22:10;12.60;99.90
2389;DHT22;1205;47.984;7.668;2023-05-14T00:24:36;12.60;99.90
2389;DHT22;1205;47.984;7.668;2023-05-14T00:27:02;12.60;99.90
2389;DHT22;1205;47.984;7.668;2023-05-14T00:29:28;12.70;99.90
2389;DHT22;1205;47.984;7.668;2023-05-14T00:31:54;12.70;99.90
2389;DHT22;1205;47.984;7.668;2023-05-14T00:34:20;12.60;99.90
2389;DHT22;1205;47.984;7.668;2023-05-14T00:36:45;12.50;99.90
2389;DHT22;1205;47.984;7.668;2023-05-14T00:39:12;12.50;99.90
2389;DHT22;1205;47.984;7.668;2023-05-14T00:41:37;12.50;99.90
2389;DHT22;1205;47.984;7.668;2023-05-14T00:44:03;12.50;99.90
2389;DHT22;1205;47.984;7.668;2023-05-14T00:46:29;12.50;99.90
2389;DHT22;1205;47.984;7.668;2023-05-14T00:48:54;12.50;99.90
2389;DHT22;1205;47.984;7.668;2023-05-14T00:51:21;12.50;99.90
2389;DHT22;1205;47.984;7.668;2023-05-14T00:53:47;12.40;99.90
2389;DHT22;1205;47.984;7.668;2023-05-14T00:56:14;12.40;99.90
2389;DHT22;1205;47.984;7.668;2023-05-14T00:58:40;12.40;99.90
2389;DHT22;1205;47.984;7.668;2023-05-14T01:01:06;12.30;99.90
2389;DHT22;1205;47.984;7.668;2023-05-14T01:03:32;12.30;99.90
2389;DHT22;1205;47.984;7.668;2023-05-14T01:06:17;12.40;99.90
2389;DHT22;1205;47.984;7.668;2023-05-14T01:11:42;12.00;99.90
2389;DHT22;1205;47.984;7.668;2023-05-14T01:16:49;11.90;99.90
2389;DHT22;1205;47.984;7.668;2023-05-14T01:19:48;11.80;99.90
2389;DHT22;1205;47.984;7.668;2023-05-14T01:22:15;11.70;99.90
2389;DHT22;1205;47.984;7.668;2023-05-14T01:24:41;11.70;99.90
2389;DHT22;1205;47.984;7.668;2023-05-14T01:27:17;11.70;99.90
2389;DHT22;1205;47.984;7.668;2023-05-14T01:29:52;11.60;99.90
2389;DHT22;1205;47.984;7.668;2023-05-14T01:32:19;11.60;99.90
2389;DHT22;1205;47.984;7.668;2023-05-14T01:34:50;11.60;99.90
2389;DHT22;1205;47.984;7.668;2023-05-14T01:37:16;11.60;99.90
2389;DHT22;1205;47.984;7.668;2023-05-14T01:39:42;11.50;99.90
2389;DHT22;1205;47.984;7.668;2023-05-14T01:42:08;11.50;99.90
2389;DHT22;1205;47.984;7.668;2023-05-14T01:44:35;11.40;99.90
2389;DHT22;1205;47.984;7.668;2023-05-14T01:47:00;11.40;99.90
2389;DHT22;1205;47.984;7.668;2023-05-14T01:49:26;11.40;99.90
2389;DHT22;1205;47.984;7.668;2023-05-14T01:51:51;11.30;99.90
2389;DHT22;1205;47.984;7.668;2023-05-14T01:54:17;11.20;99.90
2389;DHT22;1205;47.984;7.668;2023-05-14T01:56:43;11.20;99.90
2389;DHT22;1205;47.984;7.668;2023-05-14T01:59:08;11.20;99.90
2389;DHT22;1205;47.984;7.668;2023-05-14T02:01:34;11.20;99.90
2389;DHT22;1205;47.984;7.668;2023-05-14T02:03:59;11.20;99.90
2389;DHT22;1205;47.984;7.668;2023-05-14T02:06:25;11.20;99.90
2389;DHT22;1205;47.984;7.668;2023-05-14T02:08:51;11.10;99.90
2389;DHT22;1205;47.984;7.668;2023-05-14T02:11:17;11.00;99.90
2389;DHT22;1205;47.984;7.668;2023-05-14T02:13:42;11.10;99.90
2389;DHT22;1205;47.984;7.668;2023-05-14T02:16:08;11.10;99.90
2389;DHT22;1205;47.984;7.668;2023-05-14T02:18:33;11.00;99.90
2389;DHT22;1205;47.984;7.668;2023-05-14T02:20:59;11.00;99.90
2389;DHT22;1205;47.984;7.668;2023-05-14T02:23:25;11.10;99.90
2389;DHT22;1205;47.984;7.668;2023-05-14T02:25:50;11.00;99.90
2389;DHT22;1205;47.984;7.668;2023-05-14T02:28:16;11.00;99.90
2389;DHT22;1205;47.984;7.668;2023-05-14T02:30:41;10.90;99.90
2389;DHT22;1205;47.984;7.668;2023-05-14T02:33:07;10.90;99.90
2389;DHT22;1205;47.984;7.668;2023-05-14T02:35:32;10.90;99.90
2389;DHT22;1205;47.984;7.668;2023-05-14T02:37:58;10.70;99.90
2389;DHT22;1205;47.984;7.668;2023-05-14T02:40:24;10.70;99.90
2389;DHT22;1205;47.984;7.668;2023-05-14T02:42:49;10.70;99.90
2389;DHT22;1205;47.984;7.668;2023-05-14T02:45:15;10.70;99.90
2389;DHT22;1205;47.984;7.668;2023-05-14T02:47:40;10.70;99.90
2389;DHT22;1205;47.984;7.668;2023-05-14T02:50:07;10.70;99.90
2389;DHT22;1205;47.984;7.668;2023-05-14T02:52:33;10.60;99.90
2389;DHT22;1205;47.984;7.668;2023-05-14T02:54:58;10.60;99.90
2389;DHT22;1205;47.984;7.668;2023-05-14T02:57:24;10.70;99.90
2389;DHT22;1205;47.984;7.668;2023-05-14T02:59:49;10.70;99.90
2389;DHT22;1205;47.984;7.668;2023-05-14T03:02:15;10.70;99.90
2389;DHT22;1205;47.984;7.668;2023-05-14T03:04:40;10.70;99.90
2389;DHT22;1205;47.984;7.668;2023-05-14T03:07:06;10.80;99.90
2389;DHT22;1205;47.984;7.668;2023-05-14T03:09:31;10.90;99.90
2389;DHT22;1205;47.984;7.668;2023-05-14T03:11:57;10.70;99.90
2389;DHT22;1205;47.984;7.668;2023-05-14T03:14:22;10.80;99.90
2389;DHT22;1205;47.984;7.668;2023-05-14T03:16:48;10.80;99.90
2389;DHT22;1205;47.984;7.668;2023-05-14T03:19:14;10.80;99.90
2389;DHT22;1205;47.984;7.668;2023-05-14T03:21:39;10.90;99.90
2389;DHT22;1205;47.984;7.668;2023-05-14T03:24:05;10.90;99.90
2389;DHT22;1205;47.984;7.668;2023-05-14T03:26:31;10.90;99.90
2389;DHT22;1205;47.984;7.668;2023-05-14T03:28:56;10.90;99.90
2389;DHT22;1205;47.984;7.668;2023-05-14T03:31:22;10.90;99.90
2389;DHT22;1205;47.984;7.668;2023-05-14T03:33:48;10.90;99.90
2389;DHT22;1205;47.984;7.668;2023-05-14T03:36:13;10.80;99.90
2389;DHT22;1205;47.984;7.668;2023-05-14T03:38:39;10.90;99.90
2389;DHT22;1205;47.984;7.668;2023-05-14T03:41:04;10.80;99.90
2389;DHT22;1205;47.984;7.668;2023-05-14T03:43:30;10.90;99.90
2389;DHT22;1205;47.984;7.668;2023-05-14T03:45:56;11.00;99.90
2389;DHT22;1205;47.984;7.668;2023-05-14T03:48:21;11.00;99.90
2389;DHT22;1205;47.984;7.668;2023-05-14T03:50:47;11.10;99.90
2389;DHT22;1205;47.984;7.668;2023-05-14T03:53:12;11.00;99.90
2389;DHT22;1205;47.984;7.668;2023-05-14T03:55:38;11.10;99.90
2389;DHT22;1205;47.984;7.668;2023-05-14T03:58:04;11.10;99.90
2389;DHT22;1205;47.984;7.668;2023-05-14T04:00:39;11.10;99.90
2389;DHT22;1205;47.984;7.668;2023-05-14T04:03:04;11.10;99.90
2389;DHT22;1205;47.984;7.668;2023-05-14T04:05:30;11.10;99.90
2389;DHT22;1205;47.984;7.668;2023-05-14T04:07:55;11.20;99.90
2389;DHT22;1205;47.984;7.668;2023-05-14T04:10:22;11.20;99.90
2389;DHT22;1205;47.984;7.668;2023-05-14T04:12:48;11.20;99.90
2389;DHT22;1205;47.984;7.668;2023-05-14T04:15:13;11.20;99.90
2389;DHT22;1205;47.984;7.668;2023-05-14T04:17:39;11.30;99.90
2389;DHT22;1205;47.984;7.668;2023-05-14T04:20:05;11.30;99.90
2389;DHT22;1205;47.984;7.668;2023-05-14T04:22:31;11.30;99.90
2389;DHT22;1205;47.984;7.668;2023-05-14T04:24:56;11.40;99.90
2389;DHT22;1205;47.984;7.668;2023-05-14T04:27:22;11.30;99.90
2389;DHT22;1205;47.984;7.668;2023-05-14T04:29:50;11.20;99.90
2389;DHT22;1205;47.984;7.668;2023-05-14T04:32:16;11.30;99.90
2389;DHT22;1205;47.984;7.668;2023-05-14T04:34:42;11.30;99.90
2389;DHT22;1205;47.984;7.668;2023-05-14T04:37:08;11.40;99.90
2389;DHT22;1205;47.984;7.668;2023-05-14T04:39:34;11.30;99.90
2389;DHT22;1205;47.984;7.668;2023-05-14T04:42:00;11.30;99.90
2389;DHT22;1205;47.984;7.668;2023-05-14T04:44:25;11.40;99.90
2389;DHT22;1205;47.984;7.668;2023-05-14T04:46:51;11.40;99.90
2389;DHT22;1205;47.984;7.668;2023-05-14T04:49:16;11.50;99.90
2389;DHT22;1205;47.984;7.668;2023-05-14T04:51:42;11.60;99.90
2389;DHT22;1205;47.984;7.668;2023-05-14T04:54:07;11.60;99.90
2389;DHT22;1205;47.984;7.668;2023-05-14T04:56:33;11.70;99.90
2389;DHT22;1205;47.984;7.668;2023-05-14T04:58:59;11.70;99.90
2389;DHT22;1205;47.984;7.668;2023-05-14T05:01:24;11.70;99.90
2389;DHT22;1205;47.984;7.668;2023-05-14T05:03:50;11.80;99.90
2389;DHT22;1205;47.984;7.668;2023-05-14T05:06:15;11.80;99.90
2389;DHT22;1205;47.984;7.668;2023-05-14T05:08:41;11.80;99.90
2389;DHT22;1205;47.984;7.668;2023-05-14T05:11:06;11.80;99.90
2389;DHT22;1205;47.984;7.668;2023-05-14T05:13:32;11.90;99.90
2389;DHT22;1205;47.984;7.668;2023-05-14T05:15:58;11.90;99.90
2389;DHT22;1205;47.984;7.668;2023-05-14T05:18:23;12.50;99.90
2389;DHT22;1205;47.984;7.668;2023-05-14T05:20:49;13.00;99.90
2389;DHT22;1205;47.984;7.668;2023-05-14T05:23:15;12.60;99.90
2389;DHT22;1205;47.984;7.668;2023-05-14T05:25:40;12.40;99.90
2389;DHT22;1205;47.984;7.668;2023-05-14T05:28:06;12.30;99.90
2389;DHT22;1205;47.984;7.668;2023-05-14T05:30:31;12.20;99.90
2389;DHT22;1205;47.984;7.668;2023-05-14T05:32:57;12.30;99.90
2389;DHT22;1205;47.984;7.668;2023-05-14T05:35:23;12.30;99.90
2389;DHT22;1205;47.984;7.668;2023-05-14T05:37:48;12.30;99.90
2389;DHT22;1205;47.984;7.668;2023-05-14T05:40:14;12.30;99.90
2389;DHT22;1205;47.984;7.668;2023-05-14T05:42:40;12.30;99.90
2389;DHT22;1205;47.984;7.668;2023-05-14T05:45:07;12.40;99.90
2389;DHT22;1205;47.984;7.668;2023-05-14T05:47:32;12.40;99.90
2389;DHT22;1205;47.984;7.668;2023-05-14T05:49:58;12.40;99.90
2389;DHT22;1205;47.984;7.668;2023-05-14T05:52:24;12.50;99.90
2389;DHT22;1205;47.984;7.668;2023-05-14T05:54:49;12.60;99.90
2389;DHT22;1205;47.984;7.668;2023-05-14T05:57:15;12.70;99.90
2389;DHT22;1205;47.984;7.668;2023-05-14T05:59:41;12.70;99.90
2389;DHT22;1205;47.984;7.668;2023-05-14T06:02:06;12.80;99.90
2389;DHT22;1205;47.984;7.668;2023-05-14T06:04:32;12.90;99.90
2389;DHT22;1205;47.984;7.668;2023-05-14T06:06:57;13.00;99.90
2389;DHT22;1205;47.984;7.668;2023-05-14T06:09:23;13.10;99.90
2389;DHT22;1205;47.984;7.668;2023-05-14T06:11:48;13.10;99.90
2389;DHT22;1205;47.984;7.668;2023-05-14T06:14:14;13.10;99.90
2389;DHT22;1205;47.984;7.668;2023-05-14T06:16:39;13.00;99.90
2389;DHT22;1205;47.984;7.668;2023-05-14T06:19:05;12.90;99.90
2389;DHT22;1205;47.984;7.668;2023-05-14T06:21:31;12.80;99.90
2389;DHT22;1205;47.984;7.668;2023-05-14T06:23:56;12.90;99.90
2389;DHT22;1205;47.984;7.668;2023-05-14T06:26:22;12.90;99.90
2389;DHT22;1205;47.984;7.668;2023-05-14T06:28:47;13.00;99.90
2389;DHT22;1205;47.984;7.668;2023-05-14T06:31:13;13.20;99.90
2389;DHT22;1205;47.984;7.668;2023-05-14T06:33:39;13.40;99.90
2389;DHT22;1205;47.984;7.668;2023-05-14T06:36:05;13.60;99.90
2389;DHT22;1205;47.984;7.668;2023-05-14T06:38:31;13.60;99.90
2389;DHT22;1205;47.984;7.668;2023-05-14T06:40:57;13.60;99.90
2389;DHT22;1205;47.984;7.668;2023-05-14T06:43:22;13.70;99.90
2389;DHT22;1205;47.984;7.668;2023-05-14T06:45:49;13.60;99.90
2389;DHT22;1205;47.984;7.668;2023-05-14T06:48:15;13.90;99.90
2389;DHT22;1205;47.984;7.668;2023-05-14T06:50:43;14.00;99.90
2389;DHT22;1205;47.984;7.668;2023-05-14T06:53:09;14.00;99.90
2389;DHT22;1205;47.984;7.668;2023-05-14T06:55:34;14.30;99.90
2389;DHT22;1205;47.984;7.668;2023-05-14T06:58:00;14.40;99.90
2389;DHT22;1205;47.984;7.668;2023-05-14T07:00:26;14.60;99.90
2389;DHT22;1205;47.984;7.668;2023-05-14T07:02:52;14.70;99.90
2389;DHT22;1205;47.984;7.668;2023-05-14T07:05:18;14.90;99.90
2389;DHT22;1205;47.984;7.668;2023-05-14T07:07:43;14.90;99.90
2389;DHT22;1205;47.984;7.668;2023-05-14T07:10:09;14.90;99.90
2389;DHT22;1205;47.984;7.668;2023-05-14T07:12:35;15.30;99.90
2389;DHT22;1205;47.984;7.668;2023-05-14T07:15:00;15.20;99.90
2389;DHT22;1205;47.984;7.668;2023-05-14T07:17:26;15.40;99.90
2389;DHT22;1205;47.984;7.668;2023-05-14T07:19:51;15.70;99.90
2389;DHT22;1205;47.984;7.668;2023-05-14T07:22:19;15.60;99.90
2389;DHT22;1205;47.984;7.668;2023-05-14T07:24:45;15.80;99.90
2389;DHT22;1205;47.984;7.668;2023-05-14T07:27:11;15.60;99.90
2389;DHT22;1205;47.984;7.668;2023-05-14T07:29:36;15.70;99.90
2389;DHT22;1205;47.984;7.668;2023-05-14T07:32:02;15.80;99.90
2389;DHT22;1205;47.984;7.668;2023-05-14T07:34:28;16.00;99.90
2389;DHT22;1205;47.984;7.668;2023-05-14T07:36:53;15.90;99.90
2389;DHT22;1205;47.984;7.668;2023-05-14T07:39:19;16.30;99.90
2389;DHT22;1205;47.984;7.668;2023-05-14T07:41:45;16.30;99.90
2389;DHT22;1205;47.984;7.668;2023-05-14T07:44:10;16.20;99.90
2389;DHT22;1205;47.984;7.668;2023-05-14T07:46:36;16.20;99.90
2389;DHT22;1205;47.984;7.668;2023-05-14T07:49:02;16.30;99.90
2389;DHT22;1205;47.984;7.668;2023-05-14T07:51:28;16.40;99.90
2389;DHT22;1205;47.984;7.668;2023-05-14T07:53:54;16.40;99.90
2389;DHT22;1205;47.984;7.668;2023-05-14T07:56:22;17.00;99.90
2389;DHT22;1205;47.984;7.668;2023-05-14T07:58:48;17.00;99.90
2389;DHT22;1205;47.984;7.668;2023-05-14T08:01:14;17.40;99.90
2389;DHT22;1205;47.984;7.668;2023-05-14T08:03:40;17.50;99.90
2389;DHT22;1205;47.984;7.668;2023-05-14T08:06:05;17.90;99.90
2389;DHT22;1205;47.984;7.668;2023-05-14T08:08:31;17.80;99.90
2389;DHT22;1205;47.984;7.668;2023-05-14T08:10:56;17.70;99.90
2389;DHT22;1205;47.984;7.668;2023-05-14T08:13:22;18.00;99.90
2389;DHT22;1205;47.984;7.668;2023-05-14T08:15:48;17.90;99.90
2389;DHT22;1205;47.984;7.668;2023-05-14T08:18:13;17.60;99.90
2389;DHT22;1205;47.984;7.668;2023-05-14T08:20:39;17.60;99.90
2389;DHT22;1205;47.984;7.668;2023-05-14T08:23:04;17.50;99.90
2389;DHT22;1205;47.984;7.668;2023-05-14T08:25:32;17.50;99.90
2389;DHT22;1205;47.984;7.668;2023-05-14T08:27:57;17.40;99.90
2389;DHT22;1205;47.984;7.668;2023-05-14T08:30:24;17.60;99.90
2389;DHT22;1205;47.984;7.668;2023-05-14T08:32:50;18.00;99.90
2389;DHT22;1205;47.984;7.668;2023-05-14T08:35:16;17.60;99.90
2389;DHT22;1205;47.984;7.668;2023-05-14T08:37:42;17.60;99.90
2389;DHT22;1205;47.984;7.668;2023-05-14T08:40:08;17.60;99.90
2389;DHT22;1205;47.984;7.668;2023-05-14T08:42:34;17.60;99.90
2389;DHT22;1205;47.984;7.668;2023-05-14T08:45:02;17.80;99.90
2389;DHT22;1205;47.984;7.668;2023-05-14T08:47:29;17.70;99.90
2389;DHT22;1205;47.984;7.668;2023-05-14T08:50:05;17.60;99.90
2389;DHT22;1205;47.984;7.668;2023-05-14T08:52:32;17.90;99.90
2389;DHT22;1205;47.984;7.668;2023-05-14T08:54:59;18.40;99.90
2389;DHT22;1205;47.984;7.668;2023-05-14T08:57:25;18.60;99.90
2389;DHT22;1205;47.984;7.668;2023-05-14T08:59:52;18.50;99.90
2389;DHT22;1205;47.984;7.668;2023-05-14T09:02:22;18.50;99.90
2389;DHT22;1205;47.984;7.668;2023-05-14T09:04:54;18.70;99.90
2389;DHT22;1205;47.984;7.668;2023-05-14T09:07:20;18.80;99.90
2389;DHT22;1205;47.984;7.668;2023-05-14T09:09:46;18.80;99.90
2389;DHT22;1205;47.984;7.668;2023-05-14T09:12:12;18.60;99.90
2389;DHT22;1205;47.984;7.668;2023-05-14T09:14:38;18.70;99.90
2389;DHT22;1205;47.984;7.668;2023-05-14T09:17:04;18.80;99.50
2389;DHT22;1205;47.984;7.668;2023-05-14T09:19:30;19.20;99.00
2389;DHT22;1205;47.984;7.668;2023-05-14T09:21:57;19.50;99.00
2389;DHT22;1205;47.984;7.668;2023-05-14T09:24:26;19.40;98.50
2389;DHT22;1205;47.984;7.668;2023-05-14T09:26:56;19.80;98.60
2389;DHT22;1205;47.984;7.668;2023-05-14T09:29:28;19.50;97.70
2389;DHT22;1205;47.984;7.668;2023-05-14T09:31:55;19.40;97.90
2389;DHT22;1205;47.984;7.668;2023-05-14T09:34:24;19.50;97.70
2389;DHT22;1205;47.984;7.668;2023-05-14T09:36:55;19.50;97.60
2389;DHT22;1205;47.984;7.668;2023-05-14T09:39:22;19.60;97.40
2389;DHT22;1205;47.984;7.668;2023-05-14T09:41:48;19.60;97.10
2389;DHT22;1205;47.984;7.668;2023-05-14T09:44:14;19.20;96.40
2389;DHT22;1205;47.984;7.668;2023-05-14T09:46:39;18.90;95.80
2389;DHT22;1205;47.984;7.668;2023-05-14T09:49:05;19.00;97.60
2389;DHT22;1205;47.984;7.668;2023-05-14T09:51:30;19.10;97.80
2389;DHT22;1205;47.984;7.668;2023-05-14T09:53:56;19.10;97.60
2389;DHT22;1205;47.984;7.668;2023-05-14T09:56:22;19.10;98.10
2389;DHT22;1205;47.984;7.668;2023-05-14T09:58:47;19.40;98.00
2389;DHT22;1205;47.984;7.668;2023-05-14T10:01:15;19.40;97.10
2389;DHT22;1205;47.984;7.668;2023-05-14T10:03:41;19.50;97.50
2389;DHT22;1205;47.984;7.668;2023-05-14T10:06:07;19.60;97.40
2389;DHT22;1205;47.984;7.668;2023-05-14T10:08:35;19.80;97.60
2389;DHT22;1205;47.984;7.668;2023-05-14T10:11:07;19.90;97.20
2389;DHT22;1205;47.984;7.668;2023-05-14T10:13:41;19.60;95.40
2389;DHT22;1205;47.984;7.668;2023-05-14T10:16:20;19.40;95.80
2389;DHT22;1205;47.984;7.668;2023-05-14T10:18:51;19.50;97.70
2389;DHT22;1205;47.984;7.668;2023-05-14T10:21:19;19.60;96.00
2389;DHT22;1205;47.984;7.668;2023-05-14T10:23:49;19.60;95.60
2389;DHT22;1205;47.984;7.668;2023-05-14T10:26:15;19.40;94.70
2389;DHT22;1205;47.984;7.668;2023-05-14T10:28:41;19.60;95.60
2389;DHT22;1205;47.984;7.668;2023-05-14T10:31:11;19.40;95.40
2389;DHT22;1205;47.984;7.668;2023-05-14T10:33:55;19.50;96.30
2389;DHT22;1205;47.984;7.668;2023-05-14T10:36:21;19.60;94.90
2389;DHT22;1205;47.984;7.668;2023-05-14T10:38:54;20.00;95.30
2389;DHT22;1205;47.984;7.668;2023-05-14T10:41:20;20.20;95.00
2389;DHT22;1205;47.984;7.668;2023-05-14T10:43:46;20.30;94.60
2389;DHT22;1205;47.984;7.668;2023-05-14T10:46:13;20.50;95.00
2389;DHT22;1205;47.984;7.668;2023-05-14T10:48:41;20.20;94.80
2389;DHT22;1205;47.984;7.668;2023-05-14T10:51:08;20.10;95.00
2389;DHT22;1205;47.984;7.668;2023-05-14T10:53:39;20.00;95.50
2389;DHT22;1205;47.984;7.668;2023-05-14T10:56:12;20.10;95.80
2389;DHT22;1205;47.984;7.668;2023-05-14T10:58:42;20.10;95.40
2389;DHT22;1205;47.984;7.668;2023-05-14T11:01:09;20.40;95.10
2389;DHT22;1205;47.984;7.668;2023-05-14T11:06:06;20.90;94.50
2389;DHT22;1205;47.984;7.668;2023-05-14T11:08:32;20.90;95.10
2389;DHT22;1205;47.984;7.668;2023-05-14T11:10:58;20.70;94.70
2389;DHT22;1205;47.984;7.668;2023-05-14T11:13:25;20.80;95.00
2389;DHT22;1205;47.984;7.668;2023-05-14T11:15:51;20.70;94.00
2389;DHT22;1205;47.984;7.668;2023-05-14T11:18:27;20.50;93.30
2389;DHT22;1205;47.984;7.668;2023-05-14T11:20:57;20.50;93.80
2389;DHT22;1205;47.984;7.668;2023-05-14T11:23:23;20.20;94.50
2389;DHT22;1205;47.984;7.668;2023-05-14T11:25:51;20.00;94.80
2389;DHT22;1205;47.984;7.668;2023-05-14T11:28:17;20.20;94.70
2389;DHT22;1205;47.984;7.668;2023-05-14T11:30:44;20.30;94.90
2389;DHT22;1205;47.984;7.668;2023-05-14T11:33:11;20.20;94.50
2389;DHT22;1205;47.984;7.668;2023-05-14T11:35:36;19.80;95.10
2389;DHT22;1205;47.984;7.668;2023-05-14T11:38:02;19.60;95.90
2389;DHT22;1205;47.984;7.668;2023-05-14T11:40:28;20.00;95.40
2389;DHT22;1205;47.984;7.668;2023-05-14T11:42:53;20.30;94.40
2389;DHT22;1205;47.984;7.668;2023-05-14T11:45:26;20.40;94.20
2389;DHT22;1205;47.984;7.668;2023-05-14T11:47:52;20.70;94.50
2389;DHT22;1205;47.984;7.668;2023-05-14T11:50:23;20.90;94.00
2389;DHT22;1205;47.984;7.668;2023-05-14T11:52:49;20.80;94.00
2389;DHT22;1205;47.984;7.668;2023-05-14T11:55:15;20.60;93.30
2389;DHT22;1205;47.984;7.668;2023-05-14T11:57:41;20.50;93.80
2389;DHT22;1205;47.984;7.668;2023-05-14T12:00:09;20.30;93.80
2389;DHT22;1205;47.984;7.668;2023-05-14T12:02:37;20.40;94.20
2389;DHT22;1205;47.984;7.668;2023-05-14T12:05:04;20.50;94.60
2389;DHT22;1205;47.984;7.668;2023-05-14T12:07:31;20.20;94.70
2389;DHT22;1205;47.984;7.668;2023-05-14T12:10:01;19.70;96.30
2389;DHT22;1205;47.984;7.668;2023-05-14T12:12:27;19.50;96.80
2389;DHT22;1205;47.984;7.668;2023-05-14T12:14:52;19.50;97.00
2389;DHT22;1205;47.984;7.668;2023-05-14T12:17:21;19.50;97.50
2389;DHT22;1205;47.984;7.668;2023-05-14T12:19:51;19.60;96.50
2389;DHT22;1205;47.984;7.668;2023-05-14T12:22:21;19.70;95.90
2389;DHT22;1205;47.984;7.668;2023-05-14T12:24:57;19.90;96.00
2389;DHT22;1205;47.984;7.668;2023-05-14T12:27:24;20.20;95.40
2389;DHT22;1205;47.984;7.668;2023-05-14T12:30:01;20.30;96.10
2389;DHT22;1205;47.984;7.668;2023-05-14T12:32:33;20.30;95.00
2389;DHT22;1205;47.984;7.668;2023-05-14T12:34:59;20.30;94.80
2389;DHT22;1205;47.984;7.668;2023-05-14T12:37:27;20.20;94.70
2389;DHT22;1205;47.984;7.668;2023-05-14T12:39:53;20.30;94.60
2389;DHT22;1205;47.984;7.668;2023-05-14T12:42:19;20.50;94.70
2389;DHT22;1205;47.984;7.668;2023-05-14T12:44:44;20.50;94.70
2389;DHT22;1205;47.984;7.668;2023-05-14T12:47:10;20.60;94.50
2389;DHT22;1205;47.984;7.668;2023-05-14T12:49:36;20.60;94.60
2389;DHT22;1205;47.984;7.668;2023-05-14T12:52:01;20.80;95.00
2389;DHT22;1205;47.984;7.668;2023-05-14T12:54:27;20.90;93.20
2389;DHT22;1205;47.984;7.668;2023-05-14T12:56:52;20.90;93.50
2389;DHT22;1205;47.984;7.668;2023-05-14T12:59:18;21.10;93.60
2389;DHT22;1205;47.984;7.668;2023-05-14T13:01:44;21.30;93.40
2389;DHT22;1205;47.984;7.668;2023-05-14T13:04:09;21.10;92.60
2389;DHT22;1205;47.984;7.668;2023-05-14T13:06:38;21.30;92.40
2389;DHT22;1205;47.984;7.668;2023-05-14T13:09:05;21.30;92.40
2389;DHT22;1205;47.984;7.668;2023-05-14T13:11:30;21.20;92.20
2389;DHT22;1205;47.984;7.668;2023-05-14T13:13:57;21.00;92.00
2389;DHT22;1205;47.984;7.668;2023-05-14T13:16:24;21.20;92.70
2389;DHT22;1205;47.984;7.668;2023-05-14T13:18:50;21.20;91.60
2389;DHT22;1205;47.984;7.668;2023-05-14T13:21:15;21.40;90.90
2389;DHT22;1205;47.984;7.668;2023-05-14T13:23:41;21.50;90.90
2389;DHT22;1205;47.984;7.668;2023-05-14T13:26:06;21.40;93.40
2389;DHT22;1205;47.984;7.668;2023-05-14T13:28:32;21.60;94.10
2389;DHT22;1205;47.984;7.668;2023-05-14T13:31:06;21.50;94.20
2389;DHT22;1205;47.984;7.668;2023-05-14T13:33:35;21.00;93.70
2389;DHT22;1205;47.984;7.668;2023-05-14T13:36:01;21.00;94.50
2389;DHT22;1205;47.984;7.668;2023-05-14T13:38:27;20.70;94.20
2389;DHT22;1205;47.984;7.668;2023-05-14T13:40:53;20.80;94.20
2389;DHT22;1205;47.984;7.668;2023-05-14T13:43:19;20.70;94.20
2389;DHT22;1205;47.984;7.668;2023-05-14T13:45:44;20.70;94.60
2389;DHT22;1205;47.984;7.668;2023-05-14T13:48:10;20.60;94.70
2389;DHT22;1205;47.984;7.668;2023-05-14T13:50:35;20.60;94.30
2389;DHT22;1205;47.984;7.668;2023-05-14T13:53:01;20.30;94.60
2389;DHT22;1205;47.984;7.668;2023-05-14T13:55:26;20.30;94.90
2389;DHT22;1205;47.984;7.668;2023-05-14T13:57:52;20.20;95.10
2389;DHT22;1205;47.984;7.668;2023-05-14T14:00:18;20.10;95.80
2389;DHT22;1205;47.984;7.668;2023-05-14T14:02:43;20.00;95.90
2389;DHT22;1205;47.984;7.668;2023-05-14T14:05:09;19.70;96.40
2389;DHT22;1205;47.984;7.668;2023-05-14T14:07:34;19.70;96.50
2389;DHT22;1205;47.984;7.668;2023-05-14T14:10:00;19.70;96.50
2389;DHT22;1205;47.984;7.668;2023-05-14T14:12:26;19.80;96.80
2389;DHT22;1205;47.984;7.668;2023-05-14T14:14:52;19.70;96.30
2389;DHT22;1205;47.984;7.668;2023-05-14T14:17:17;19.60;95.90
2389;DHT22;1205;47.984;7.668;2023-05-14T14:19:43;19.50;95.90
2389;DHT22;1205;47.984;7.668;2023-05-14T14:22:08;19.30;95.40
2389;DHT22;1205;47.984;7.668;2023-05-14T14:24:34;19.30;96.30
2389;DHT22;1205;47.984;7.668;2023-05-14T14:27:00;19.50;96.60
2389;DHT22;1205;47.984;7.668;2023-05-14T14:29:26;19.60;96.60
2389;DHT22;1205;47.984;7.668;2023-05-14T14:31:53;19.60;95.80
2389;DHT22;1205;47.984;7.668;2023-05-14T14:34:18;19.60;95.60
2389;DHT22;1205;47.984;7.668;2023-05-14T14:36:44;19.80;95.50
2389;DHT22;1205;47.984;7.668;2023-05-14T14:39:10;19.80;94.40
2389;DHT22;1205;47.984;7.668;2023-05-14T14:41:36;19.70;94.70
2389;DHT22;1205;47.984;7.668;2023-05-14T14:44:01;19.80;95.00
2389;DHT22;1205;47.984;7.668;2023-05-14T14:46:27;19.50;94.50
2389;DHT22;1205;47.984;7.668;2023-05-14T14:48:52;19.30;95.00
2389;DHT22;1205;47.984;7.668;2023-05-14T14:51:18;19.50;95.20
2389;DHT22;1205;47.984;7.668;2023-05-14T14:53:44;19.60;95.40
2389;DHT22;1205;47.984;7.668;2023-05-14T14:56:09;19.80;95.30
2389;DHT22;1205;47.984;7.668;2023-05-14T14:58:35;20.00;95.40
2389;DHT22;1205;47.984;7.668;2023-05-14T15:01:01;20.20;93.60
2389;DHT22;1205;47.984;7.668;2023-05-14T15:03:27;20.20;94.10
2389;DHT22;1205;47.984;7.668;2023-05-14T15:05:53;20.30;93.80
2389;DHT22;1205;47.984;7.668;2023-05-14T15:08:18;20.20;93.80
2389;DHT22;1205;47.984;7.668;2023-05-14T15:10:45;20.20;93.60
2389;DHT22;1205;47.984;7.668;2023-05-14T15:13:11;20.20;93.20
2389;DHT22;1205;47.984;7.668;2023-05-14T15:15:37;20.10;93.40
2389;DHT22;1205;47.984;7.668;2023-05-14T15:18:03;20.00;93.50
2389;DHT22;1205;47.984;7.668;2023-05-14T15:20:29;19.90;94.00
2389;DHT22;1205;47.984;7.668;2023-05-14T15:22:55;19.80;94.20
2389;DHT22;1205;47.984;7.668;2023-05-14T15:25:21;19.80;94.40
2389;DHT22;1205;47.984;7.668;2023-05-14T15:27:47;19.80;94.60
2389;DHT22;1205;47.984;7.668;2023-05-14T15:30:13;19.90;94.80
2389;DHT22;1205;47.984;7.668;2023-05-14T15:32:39;19.90;94.70
2389;DHT22;1205;47.984;7.668;2023-05-14T15:35:06;20.00;94.70
2389;DHT22;1205;47.984;7.668;2023-05-14T15:37:37;20.00;94.40
2389;DHT22;1205;47.984;7.668;2023-05-14T15:40:03;20.10;94.50
2389;DHT22;1205;47.984;7.668;2023-05-14T15:42:30;19.80;94.30
2389;DHT22;1205;47.984;7.668;2023-05-14T15:44:56;19.80;94.50
2389;DHT22;1205;47.984;7.668;2023-05-14T15:47:22;19.90;94.90
2389;DHT22;1205;47.984;7.668;2023-05-14T15:49:47;19.70;94.80
2389;DHT22;1205;47.984;7.668;2023-05-14T15:52:13;19.70;94.70
2389;DHT22;1205;47.984;7.668;2023-05-14T15:54:38;19.70;94.90
2389;DHT22;1205;47.984;7.668;2023-05-14T15:57:04;19.70;95.10
2389;DHT22;1205;47.984;7.668;2023-05-14T15:59:30;19.60;95.40
2389;DHT22;1205;47.984;7.668;2023-05-14T16:01:55;19.50;95.20
2389;DHT22;1205;47.984;7.668;2023-05-14T16:04:21;19.50;95.80